Grand Junction Regional Airport Grand Junction US
ICAO: KGJT
IATA: GJT
Category: Medium
Scheduled Services: Yes

Elevation: 4858 ft
TransAlt. 18000 ft.

Airport Communications:
DENVER APP/DEP:119.7
VFR ADVSY SVC:118.1
ATIS:118.55
CTAF:118.1
GND:121.7
DENVER RDO:122.6
GRAND JUNCTION TWR:118.1
UNICOM:122.95

KGJT Zoom In..

If you have problems with the map follow the link
https://www.worldairports.se/pages/airport.php?
ICAO=KGJT

Runways:

(A) RW 04 length 5502 ft width 75 ft
---- / hdg 41

(B) RW 11 length 10501 ft width 150 ft
ILS 110.30 / hdg 112

(C) RW 22 length 5502 ft width 75 ft
---- / hdg 221

(D) RW 29 length 10501 ft width 150 ft
---- / hdg 292

Location; KGJT
Day. 14 / Time. 04.53 Zulu
* Altimeter: 29.93
* Temperature: 04° c. 39.2°f.
* Wind from: 140° Speed 16 kn with Gusts up to 26 kn.
Dewpoint: -01° c.
Visibility: 10 Statute Miles.
Clouds: Broken 5500 ft.
Clouds: Overcast 7000 ft.

KGJT 140453Z AUTO 14016G26KT 10SM BKN055 OVC070 04/M01 A2993 RMK AO2 PK WND 14032/0439 SLP131 T00441011


Wind From 140°
Speed 16 kn.

 
 
jpsmedia worldairports.se 2019   terms of use